createdAt,value
2023-04-26T00:02:07.685Z,2.70
2023-04-26T00:04:35.937Z,3.20
2023-04-26T00:07:04.075Z,2.70
2023-04-26T00:09:32.286Z,2.50
2023-04-26T00:12:00.298Z,2.50
2023-04-26T00:14:28.008Z,3.20
2023-04-26T00:16:56.454Z,2.50
2023-04-26T00:19:24.973Z,2.70
2023-04-26T00:21:52.697Z,2.60
2023-04-26T00:24:21.082Z,2.30
2023-04-26T00:26:48.899Z,3.00
2023-04-26T00:29:16.625Z,2.50
2023-04-26T00:31:44.463Z,3.00
2023-04-26T00:34:12.401Z,2.30
2023-04-26T00:36:40.225Z,2.20
2023-04-26T00:39:09.271Z,2.20
2023-04-26T00:41:37.036Z,2.60
2023-04-26T00:44:05.030Z,3.00
2023-04-26T00:46:32.884Z,3.10
2023-04-26T00:49:00.640Z,2.10
2023-04-26T00:51:28.582Z,2.90
2023-04-26T00:53:56.888Z,2.60
2023-04-26T00:56:25.497Z,3.10
2023-04-26T00:58:53.510Z,2.70
2023-04-26T01:01:22.714Z,3.60
2023-04-26T01:03:50.637Z,3.50
2023-04-26T01:06:18.591Z,3.90
2023-04-26T01:08:47.207Z,3.10
2023-04-26T01:11:15.193Z,2.80
2023-04-26T01:13:43.534Z,3.10
2023-04-26T01:16:12.233Z,3.30
2023-04-26T01:18:41.695Z,3.90
2023-04-26T01:21:11.491Z,3.50
2023-04-26T01:23:39.307Z,3.70
2023-04-26T01:26:07.024Z,3.00
2023-04-26T01:28:34.724Z,3.10
2023-04-26T01:31:05.168Z,2.80
2023-04-26T01:33:32.978Z,3.30
2023-04-26T01:36:00.769Z,3.80
2023-04-26T01:38:30.054Z,2.50
2023-04-26T01:40:57.864Z,2.80
2023-04-26T01:43:25.637Z,2.20
2023-04-26T01:45:53.463Z,2.90
2023-04-26T01:48:40.972Z,3.20
2023-04-26T01:51:08.711Z,3.20
2023-04-26T01:53:36.735Z,2.50
2023-04-26T01:56:05.985Z,3.10
2023-04-26T01:58:33.746Z,3.40
2023-04-26T02:01:07.116Z,2.70
2023-04-26T02:03:35.802Z,2.70
2023-04-26T02:06:04.241Z,2.40
2023-04-26T02:08:32.043Z,2.50
2023-04-26T02:10:59.912Z,3.10
2023-04-26T02:13:27.610Z,3.50
2023-04-26T02:15:55.867Z,3.00
2023-04-26T02:18:23.758Z,3.70
2023-04-26T02:20:51.702Z,2.00
2023-04-26T02:23:20.237Z,3.00
2023-04-26T02:25:49.091Z,3.50
2023-04-26T02:28:19.227Z,4.00
2023-04-26T02:30:46.961Z,2.50
2023-04-26T02:33:14.690Z,3.20
2023-04-26T02:35:42.736Z,3.10
2023-04-26T02:38:11.722Z,3.80
2023-04-26T02:40:39.525Z,3.40
2023-04-26T02:43:08.093Z,4.00
2023-04-26T02:45:42.029Z,3.20
2023-04-26T02:48:11.348Z,4.40
2023-04-26T02:50:39.361Z,4.50
2023-04-26T02:53:07.254Z,3.70
2023-04-26T02:55:34.996Z,4.50
2023-04-26T02:58:02.865Z,3.80
2023-04-26T03:00:30.834Z,3.70
2023-04-26T03:02:58.735Z,4.00
2023-04-26T03:05:26.514Z,3.30
2023-04-26T03:07:54.355Z,2.70
2023-04-26T03:10:22.063Z,3.70
2023-04-26T03:12:50.347Z,3.20
2023-04-26T03:15:18.420Z,3.50
2023-04-26T03:17:46.582Z,3.40
2023-04-26T03:20:15.416Z,3.20
2023-04-26T03:22:43.747Z,4.50
2023-04-26T03:25:11.805Z,4.00
2023-04-26T03:27:39.548Z,3.70
2023-04-26T03:30:08.369Z,3.20
2023-04-26T03:32:36.932Z,3.80
2023-04-26T03:35:05.477Z,3.10
2023-04-26T03:37:33.301Z,3.30
2023-04-26T03:40:08.432Z,3.00
2023-04-26T03:42:36.991Z,3.50
2023-04-26T03:45:05.571Z,4.70
2023-04-26T03:47:33.594Z,3.10
2023-04-26T03:50:01.658Z,3.00
2023-04-26T03:52:29.370Z,3.00
2023-04-26T03:54:57.623Z,2.80
2023-04-26T03:57:25.716Z,3.20
2023-04-26T03:59:53.723Z,3.10
2023-04-26T04:02:21.928Z,3.30
2023-04-26T04:04:50.246Z,3.30
2023-04-26T04:07:19.121Z,3.40
2023-04-26T04:09:46.984Z,3.00
2023-04-26T04:12:15.356Z,3.50
2023-04-26T04:14:44.087Z,3.40
2023-04-26T04:17:12.100Z,3.50
2023-04-26T04:19:40.220Z,3.20
2023-04-26T04:22:08.357Z,3.30
2023-04-26T04:24:37.466Z,2.70
2023-04-26T04:27:05.251Z,3.80
2023-04-26T04:29:33.780Z,3.50
2023-04-26T04:32:02.162Z,3.30
2023-04-26T04:34:30.288Z,2.40
2023-04-26T04:36:58.146Z,3.40
2023-04-26T04:39:26.068Z,3.10
2023-04-26T04:41:54.475Z,3.00
2023-04-26T04:44:24.084Z,3.30
2023-04-26T04:46:53.330Z,3.20
2023-04-26T04:49:21.359Z,3.40
2023-04-26T04:51:49.412Z,3.00
2023-04-26T04:54:18.643Z,3.30
2023-04-26T04:56:48.504Z,2.70
2023-04-26T04:59:17.269Z,2.80
2023-04-26T05:01:45.329Z,3.00
2023-04-26T05:04:15.706Z,2.70
2023-04-26T05:06:44.535Z,2.80
2023-04-26T05:09:13.233Z,3.50
2023-04-26T05:11:41.807Z,2.50
2023-04-26T05:14:11.415Z,2.70
2023-04-26T05:16:39.272Z,2.70
2023-04-26T05:19:09.385Z,3.00
2023-04-26T05:21:37.934Z,2.70
2023-04-26T05:24:07.126Z,3.40
2023-04-26T05:26:36.781Z,2.70
2023-04-26T05:29:31.144Z,2.90
2023-04-26T05:31:59.027Z,3.30
2023-04-26T05:34:53.012Z,2.90
2023-04-26T05:37:21.246Z,2.70
2023-04-26T05:39:49.454Z,2.70
2023-04-26T05:42:18.281Z,2.40
2023-04-26T05:44:46.455Z,2.90
2023-04-26T05:47:14.473Z,2.70
2023-04-26T05:49:42.515Z,2.80
2023-04-26T05:52:10.275Z,2.20
2023-04-26T05:54:38.095Z,2.40
2023-04-26T05:57:06.156Z,2.80
2023-04-26T05:59:37.251Z,2.80
2023-04-26T06:02:05.484Z,3.00
2023-04-26T06:04:33.556Z,2.50
2023-04-26T06:07:05.416Z,2.40
2023-04-26T06:09:33.365Z,1.90
2023-04-26T06:12:01.785Z,1.90
2023-04-26T06:14:30.984Z,2.50
2023-04-26T06:17:02.303Z,2.60
2023-04-26T06:19:30.204Z,2.30
2023-04-26T06:21:57.964Z,2.20
2023-04-26T06:24:26.102Z,2.60
2023-04-26T06:26:53.975Z,2.00
2023-04-26T06:29:21.953Z,2.00
2023-04-26T06:31:49.880Z,1.90
2023-04-26T06:37:47.253Z,1.90
2023-04-26T06:40:15.984Z,2.60
2023-04-26T06:42:44.052Z,2.20
2023-04-26T06:45:24.373Z,2.20
2023-04-26T06:47:53.342Z,2.00
2023-04-26T06:50:24.268Z,2.20
2023-04-26T06:52:52.165Z,2.20
2023-04-26T06:55:20.713Z,2.20
2023-04-26T06:57:50.620Z,1.80
2023-04-26T07:00:19.030Z,2.10
2023-04-26T07:02:46.900Z,1.80
2023-04-26T07:05:15.532Z,2.00
2023-04-26T07:07:43.483Z,1.80
2023-04-26T07:10:11.252Z,2.80
2023-04-26T07:12:39.060Z,2.10
2023-04-26T07:15:07.615Z,2.30
2023-04-26T07:17:35.352Z,2.00
2023-04-26T07:20:04.154Z,2.00
2023-04-26T07:22:31.953Z,1.70
2023-04-26T07:24:59.670Z,2.10
2023-04-26T07:27:27.440Z,1.70
2023-04-26T07:29:56.360Z,2.00
2023-04-26T07:32:24.269Z,2.20
2023-04-26T07:34:52.037Z,2.20
2023-04-26T07:37:19.767Z,1.70
2023-04-26T07:39:47.684Z,1.80
2023-04-26T07:42:15.523Z,1.70
2023-04-26T07:44:43.264Z,2.30
2023-04-26T07:47:14.506Z,1.60
2023-04-26T07:49:42.791Z,2.20
2023-04-26T07:52:10.557Z,1.70
2023-04-26T07:54:40.047Z,1.60
2023-04-26T07:59:35.406Z,1.90
2023-04-26T08:02:03.285Z,1.70
2023-04-26T08:04:34.518Z,1.80
2023-04-26T08:07:02.751Z,1.70
2023-04-26T08:09:30.850Z,2.00
2023-04-26T08:11:58.943Z,2.20
2023-04-26T08:14:27.209Z,1.60
2023-04-26T08:16:54.943Z,1.20
2023-04-26T08:19:23.186Z,1.50
2023-04-26T08:21:51.043Z,1.20
2023-04-26T08:24:18.804Z,1.70
2023-04-26T08:26:46.613Z,1.90
2023-04-26T08:29:15.031Z,2.00
2023-04-26T08:31:42.857Z,1.40
2023-04-26T08:34:11.680Z,0.90
2023-04-26T08:36:42.856Z,1.40
2023-04-26T08:39:12.285Z,1.50
2023-04-26T08:44:11.838Z,1.70
2023-04-26T08:46:48.069Z,1.00
2023-04-26T08:49:36.090Z,1.30
2023-04-26T08:54:32.962Z,1.00
2023-04-26T08:57:01.941Z,1.10
2023-04-26T08:59:31.306Z,1.20
2023-04-26T09:02:01.375Z,0.90
2023-04-26T09:04:29.461Z,1.00
2023-04-26T09:07:01.893Z,1.00
2023-04-26T09:09:38.062Z,1.10
2023-04-26T09:12:06.176Z,0.90
2023-04-26T09:14:34.456Z,1.10
2023-04-26T09:17:02.286Z,0.90
2023-04-26T09:19:42.716Z,0.90
2023-04-26T09:22:11.013Z,1.10
2023-04-26T09:24:50.363Z,1.00
2023-04-26T09:27:19.176Z,0.70
2023-04-26T09:30:10.647Z,0.50
2023-04-26T09:32:44.629Z,1.20
2023-04-26T09:35:39.894Z,0.80
2023-04-26T09:38:13.514Z,1.20
2023-04-26T09:40:46.897Z,1.00
2023-04-26T09:43:16.733Z,1.30
2023-04-26T09:45:50.182Z,0.80
2023-04-26T09:48:23.355Z,0.90
2023-04-26T09:50:53.245Z,0.90
2023-04-26T09:53:27.720Z,1.10
2023-04-26T09:55:56.573Z,0.70
2023-04-26T09:58:24.525Z,1.20
2023-04-26T10:00:53.177Z,0.90
2023-04-26T10:03:21.316Z,1.10
2023-04-26T10:05:49.424Z,1.00
2023-04-26T10:08:17.252Z,1.80
2023-04-26T10:10:47.852Z,1.30
2023-04-26T10:13:16.886Z,1.00
2023-04-26T10:15:45.132Z,0.90
2023-04-26T10:18:13.146Z,0.60
2023-04-26T10:20:44.946Z,0.80
2023-04-26T10:23:25.494Z,1.00
2023-04-26T10:25:55.584Z,0.70
2023-04-26T10:28:50.844Z,0.80
2023-04-26T10:31:21.353Z,1.10
2023-04-26T10:34:18.960Z,0.80
2023-04-26T10:37:17.245Z,0.60
2023-04-26T10:39:46.885Z,0.60
2023-04-26T10:44:56.611Z,0.70
2023-04-26T10:47:37.418Z,0.80
2023-04-26T10:50:09.870Z,0.90
2023-04-26T10:53:05.591Z,1.00
2023-04-26T10:55:42.978Z,1.10
2023-04-26T10:58:31.626Z,1.10
2023-04-26T11:01:08.515Z,0.90
2023-04-26T11:03:37.189Z,0.90
2023-04-26T11:06:09.899Z,1.70
2023-04-26T11:08:37.748Z,1.10
2023-04-26T11:11:13.512Z,1.30
2023-04-26T11:13:43.119Z,1.20
2023-04-26T11:16:13.691Z,0.90
2023-04-26T11:18:44.515Z,0.90
2023-04-26T11:21:17.567Z,1.20
2023-04-26T11:23:55.307Z,1.30
2023-04-26T11:26:24.743Z,1.10
2023-04-26T11:31:21.299Z,1.20
2023-04-26T11:39:22.707Z,1.00
2023-04-26T11:41:50.725Z,1.20
2023-04-26T11:44:21.169Z,0.90
2023-04-26T11:46:49.332Z,1.20
2023-04-26T11:49:17.645Z,0.90
2023-04-26T11:51:49.753Z,1.00
2023-04-26T11:54:37.851Z,1.60
2023-04-26T11:57:17.229Z,0.80
2023-04-26T11:59:46.287Z,1.40
2023-04-26T12:02:14.357Z,0.90
2023-04-26T12:04:44.214Z,1.60
2023-04-26T12:07:12.143Z,1.00
2023-04-26T12:09:44.645Z,1.30
2023-04-26T12:12:12.546Z,1.10
2023-04-26T12:14:40.869Z,1.30
2023-04-26T12:17:10.362Z,0.90
2023-04-26T12:22:08.468Z,0.60
2023-04-26T12:27:07.306Z,1.20
2023-04-26T12:29:35.678Z,1.50
2023-04-26T12:32:04.381Z,0.70
2023-04-26T12:34:33.043Z,1.50
2023-04-26T12:37:01.117Z,1.10
2023-04-26T12:39:28.924Z,0.90
2023-04-26T12:41:57.045Z,1.00
2023-04-26T12:44:25.074Z,1.00
2023-04-26T12:46:52.839Z,0.90
2023-04-26T12:49:20.615Z,1.20
2023-04-26T12:51:48.328Z,1.20
2023-04-26T12:54:16.285Z,1.10
2023-04-26T12:56:45.027Z,0.70
2023-04-26T12:59:12.912Z,1.00
2023-04-26T13:01:41.276Z,1.10
2023-04-26T13:04:10.208Z,1.00
2023-04-26T13:06:38.229Z,0.70
2023-04-26T13:09:08.273Z,1.00
2023-04-26T13:11:36.310Z,1.00
2023-04-26T13:14:04.443Z,1.20
2023-04-26T13:16:33.469Z,1.00
2023-04-26T13:19:01.443Z,0.80
2023-04-26T13:21:29.446Z,1.00
2023-04-26T13:23:57.291Z,0.90
2023-04-26T13:26:27.097Z,1.00
2023-04-26T13:28:55.933Z,1.10
2023-04-26T13:31:23.877Z,1.10
2023-04-26T13:33:51.743Z,1.20
2023-04-26T13:36:19.611Z,0.80
2023-04-26T13:38:47.640Z,1.00
2023-04-26T13:41:15.505Z,1.20
2023-04-26T13:43:43.312Z,0.80
2023-04-26T13:46:11.260Z,1.10
2023-04-26T13:48:39.102Z,1.00
2023-04-26T13:51:07.252Z,0.80
2023-04-26T13:53:35.094Z,0.80
2023-04-26T13:56:02.975Z,1.30
2023-04-26T13:58:30.717Z,1.10
2023-04-26T14:00:58.465Z,1.40
2023-04-26T14:03:27.134Z,0.90
2023-04-26T14:05:56.643Z,1.10
2023-04-26T14:08:24.512Z,1.10
2023-04-26T14:10:53.027Z,1.00
2023-04-26T14:13:21.555Z,1.30
2023-04-26T14:15:49.558Z,1.40
2023-04-26T14:18:17.780Z,1.10
2023-04-26T14:20:46.757Z,1.00
2023-04-26T14:23:14.546Z,1.00
2023-04-26T14:25:42.533Z,1.10
2023-04-26T14:28:10.488Z,0.90
2023-04-26T14:30:38.464Z,1.30
2023-04-26T14:33:06.247Z,1.70
2023-04-26T14:35:34.018Z,1.30
2023-04-26T14:38:01.784Z,1.20
2023-04-26T14:40:30.219Z,1.40
2023-04-26T14:42:58.012Z,1.20
2023-04-26T14:45:37.024Z,1.00
2023-04-26T14:48:12.504Z,1.70
2023-04-26T14:50:40.707Z,1.50
2023-04-26T14:53:09.758Z,1.70
2023-04-26T14:55:37.733Z,1.50
2023-04-26T14:58:05.779Z,1.20
2023-04-26T15:00:33.840Z,1.00
2023-04-26T15:03:01.971Z,1.20
2023-04-26T15:05:29.890Z,1.20
2023-04-26T15:07:57.800Z,1.20
2023-04-26T15:10:25.779Z,1.20
2023-04-26T15:12:53.625Z,1.20
2023-04-26T15:15:21.572Z,1.50
2023-04-26T15:17:49.482Z,1.40
2023-04-26T15:20:18.751Z,1.40
2023-04-26T15:22:46.709Z,1.40
2023-04-26T15:25:14.545Z,2.50
2023-04-26T15:27:42.519Z,1.30
2023-04-26T15:30:10.938Z,1.50
2023-04-26T15:32:38.845Z,1.40
2023-04-26T15:35:07.953Z,1.60
2023-04-26T15:37:36.823Z,1.00
2023-04-26T15:40:06.218Z,2.40
2023-04-26T15:42:33.929Z,3.60
2023-04-26T15:45:02.507Z,2.50
2023-04-26T15:47:30.463Z,1.90
2023-04-26T15:50:03.720Z,1.30
2023-04-26T15:52:38.543Z,1.50
2023-04-26T15:55:08.619Z,1.40
2023-04-26T15:57:36.773Z,1.60
2023-04-26T16:00:09.082Z,1.60
2023-04-26T16:02:37.117Z,1.50
2023-04-26T16:05:07.236Z,1.60
2023-04-26T16:07:35.357Z,1.80
2023-04-26T16:10:03.902Z,1.30
2023-04-26T16:12:31.965Z,1.30
2023-04-26T16:14:59.761Z,1.70
2023-04-26T16:17:27.584Z,4.20
2023-04-26T16:19:55.894Z,2.80
2023-04-26T16:22:23.729Z,1.90
2023-04-26T16:24:51.543Z,2.10
2023-04-26T16:27:22.592Z,2.30
2023-04-26T16:29:50.365Z,1.60
2023-04-26T16:32:18.214Z,1.50
2023-04-26T16:34:46.085Z,1.80
2023-04-26T16:37:14.833Z,1.60
2023-04-26T16:39:42.632Z,2.20
2023-04-26T16:42:10.620Z,1.70
2023-04-26T16:44:38.461Z,1.60
2023-04-26T16:47:06.807Z,1.80
2023-04-26T16:49:34.812Z,2.20
2023-04-26T16:52:02.578Z,1.70
2023-04-26T16:54:30.352Z,2.10
2023-04-26T16:56:58.366Z,1.80
2023-04-26T16:59:26.234Z,1.10
2023-04-26T17:01:54.614Z,1.60
2023-04-26T17:04:22.633Z,1.40
2023-04-26T17:06:50.859Z,1.70
2023-04-26T17:09:18.748Z,1.30
2023-04-26T17:11:46.936Z,1.40
2023-04-26T17:14:15.601Z,1.70
2023-04-26T17:16:43.524Z,1.60
2023-04-26T17:19:11.695Z,1.40
2023-04-26T17:21:39.455Z,1.50
2023-04-26T17:24:08.865Z,1.50
2023-04-26T17:26:36.962Z,1.70
2023-04-26T17:29:04.928Z,1.60
2023-04-26T17:31:32.942Z,1.50
2023-04-26T17:34:03.296Z,1.50
2023-04-26T17:36:32.475Z,1.60
2023-04-26T17:39:00.646Z,1.50
2023-04-26T17:41:28.480Z,1.50
2023-04-26T17:43:56.294Z,2.10
2023-04-26T17:46:24.132Z,1.60
2023-04-26T17:48:52.206Z,1.50
2023-04-26T17:51:20.022Z,1.80
2023-04-26T17:53:47.795Z,1.70
2023-04-26T17:56:15.573Z,1.50
2023-04-26T17:58:43.496Z,1.80
2023-04-26T18:01:11.525Z,2.80
2023-04-26T18:03:39.663Z,1.70
2023-04-26T18:06:07.624Z,2.00
2023-04-26T18:08:35.492Z,1.80
2023-04-26T18:11:03.265Z,2.00
2023-04-26T18:13:31.599Z,2.00
2023-04-26T18:15:59.432Z,1.90
2023-04-26T18:18:29.637Z,2.10
2023-04-26T18:20:57.800Z,2.20
2023-04-26T18:23:25.785Z,2.20
2023-04-26T18:25:53.539Z,2.00
2023-04-26T18:28:22.077Z,2.30
2023-04-26T18:30:49.841Z,2.10
2023-04-26T18:33:17.844Z,2.10
2023-04-26T18:35:49.069Z,2.00
2023-04-26T18:38:17.719Z,2.50
2023-04-26T18:40:49.786Z,2.50
2023-04-26T18:43:17.937Z,2.20
2023-04-26T18:45:45.964Z,1.90
2023-04-26T18:48:13.782Z,2.40
2023-04-26T18:50:48.983Z,2.00
2023-04-26T18:53:17.556Z,2.40
2023-04-26T18:55:45.415Z,2.40
2023-04-26T18:58:13.390Z,2.80
2023-04-26T19:00:41.230Z,3.00
2023-04-26T19:03:09.194Z,3.30
2023-04-26T19:05:41.301Z,2.90
2023-04-26T19:08:09.682Z,3.80
2023-04-26T19:10:37.791Z,2.70
2023-04-26T19:13:05.850Z,3.40
2023-04-26T19:15:33.553Z,3.10
2023-04-26T19:18:01.581Z,3.20
2023-04-26T19:20:29.544Z,3.30
2023-04-26T19:22:57.297Z,4.20
2023-04-26T19:25:26.758Z,3.50
2023-04-26T19:27:54.586Z,3.30
2023-04-26T19:30:22.352Z,3.60
2023-04-26T19:32:51.070Z,5.00
2023-04-26T19:35:19.059Z,4.80
2023-04-26T19:37:46.892Z,5.00
2023-04-26T19:40:14.968Z,5.70
2023-04-26T19:42:42.753Z,6.10
2023-04-26T19:45:11.016Z,3.90
2023-04-26T19:47:41.736Z,3.90
2023-04-26T19:50:10.186Z,4.20
2023-04-26T19:52:37.917Z,4.10
2023-04-26T19:55:05.852Z,3.80
2023-04-26T19:57:33.814Z,3.80
2023-04-26T20:00:01.761Z,3.70
2023-04-26T20:02:35.051Z,3.50
2023-04-26T20:05:03.369Z,3.50
2023-04-26T20:07:31.802Z,3.70
2023-04-26T20:09:59.847Z,3.20
2023-04-26T20:12:27.630Z,3.50
2023-04-26T20:14:55.439Z,3.40
2023-04-26T20:17:23.289Z,3.10
2023-04-26T20:19:51.728Z,3.30
2023-04-26T20:22:19.457Z,3.20
2023-04-26T20:24:47.383Z,3.90
2023-04-26T20:27:15.120Z,3.50
2023-04-26T20:29:42.863Z,3.50
2023-04-26T20:32:10.658Z,4.10
2023-04-26T20:34:38.672Z,4.10
2023-04-26T20:37:06.456Z,3.20
2023-04-26T20:39:34.194Z,4.00
2023-04-26T20:42:02.357Z,3.90
2023-04-26T20:44:30.115Z,3.90
2023-04-26T20:46:57.970Z,3.20
2023-04-26T20:49:25.757Z,3.90
2023-04-26T20:51:54.620Z,3.60
2023-04-26T20:54:22.425Z,3.20
2023-04-26T20:56:50.237Z,3.60
2023-04-26T20:59:18.034Z,3.90
2023-04-26T21:01:46.043Z,3.50
2023-04-26T21:04:14.000Z,3.80
2023-04-26T21:06:41.842Z,3.20
2023-04-26T21:09:09.828Z,4.00
2023-04-26T21:11:37.780Z,3.60
2023-04-26T21:14:06.850Z,3.40
2023-04-26T21:16:35.597Z,3.10
2023-04-26T21:19:03.567Z,3.30
2023-04-26T21:21:32.556Z,3.50
2023-04-26T21:24:00.951Z,3.40
2023-04-26T21:26:28.777Z,4.20
2023-04-26T21:28:56.576Z,3.60
2023-04-26T21:31:24.414Z,4.10
2023-04-26T21:33:53.360Z,3.70
2023-04-26T21:39:06.713Z,4.20
2023-04-26T21:41:34.525Z,2.90
2023-04-26T21:44:02.206Z,3.70
2023-04-26T21:46:30.212Z,3.70
2023-04-26T21:48:58.248Z,3.50
2023-04-26T21:51:25.973Z,4.00
2023-04-26T21:53:53.782Z,3.80
2023-04-26T21:56:21.785Z,3.70
2023-04-26T21:58:49.535Z,4.00
2023-04-26T22:01:17.511Z,3.70
2023-04-26T22:03:45.599Z,4.10
2023-04-26T22:06:13.465Z,4.40
2023-04-26T22:08:41.379Z,3.50
2023-04-26T22:11:09.229Z,3.40
2023-04-26T22:13:37.024Z,3.80
2023-04-26T22:16:05.156Z,3.10
2023-04-26T22:18:33.004Z,3.40
2023-04-26T22:21:01.052Z,3.10
2023-04-26T22:23:28.886Z,3.30
2023-04-26T22:25:58.192Z,3.10
2023-04-26T22:28:26.771Z,3.10
2023-04-26T22:30:54.559Z,3.70
2023-04-26T22:33:22.389Z,3.50
2023-04-26T22:35:50.187Z,3.30
2023-04-26T22:38:18.025Z,3.50
2023-04-26T22:40:45.818Z,4.00
2023-04-26T22:43:13.514Z,3.50
2023-04-26T22:45:41.354Z,3.60
2023-04-26T22:48:09.148Z,3.40
2023-04-26T22:50:36.961Z,3.80
2023-04-26T22:53:04.763Z,3.80
2023-04-26T22:55:32.607Z,3.20
2023-04-26T22:58:00.504Z,3.70
2023-04-26T23:00:28.299Z,3.20
2023-04-26T23:02:56.191Z,3.90
2023-04-26T23:05:24.093Z,3.60
2023-04-26T23:07:52.453Z,3.30
2023-04-26T23:10:20.473Z,4.00
2023-04-26T23:12:50.116Z,2.90
2023-04-26T23:15:18.674Z,3.60
2023-04-26T23:17:47.067Z,3.50
2023-04-26T23:20:15.925Z,3.60
2023-04-26T23:22:44.033Z,3.60
2023-04-26T23:25:11.899Z,3.10
2023-04-26T23:27:39.916Z,3.60
2023-04-26T23:30:08.389Z,3.60
2023-04-26T23:32:36.873Z,3.80
2023-04-26T23:35:05.571Z,4.20
2023-04-26T23:37:33.412Z,3.90
2023-04-26T23:40:01.489Z,4.20
2023-04-26T23:42:29.346Z,3.50
2023-04-26T23:44:57.059Z,4.20
2023-04-26T23:47:25.510Z,3.60
2023-04-26T23:49:53.435Z,3.70
2023-04-26T23:52:21.272Z,3.20
2023-04-26T23:54:49.098Z,4.30
2023-04-26T23:57:16.993Z,4.30
2023-04-26T23:59:44.796Z,4.10
